createdAt,value
2023-03-16T00:00:46.002Z,1004.47
2023-03-16T00:01:45.987Z,1004.62
2023-03-16T00:02:46.066Z,1004.68
2023-03-16T00:03:45.939Z,1004.66
2023-03-16T00:04:45.949Z,1004.63
2023-03-16T00:05:46.180Z,1004.64
2023-03-16T00:06:45.919Z,1004.66
2023-03-16T00:07:45.897Z,1004.66
2023-03-16T00:08:46.016Z,1004.69
2023-03-16T00:09:45.870Z,1004.69
2023-03-16T00:10:45.863Z,1004.71
2023-03-16T00:11:46.089Z,1004.73
2023-03-16T00:12:45.857Z,1004.77
2023-03-16T00:13:45.841Z,1004.77
2023-03-16T00:14:45.927Z,1004.82
2023-03-16T00:15:45.815Z,1004.84
2023-03-16T00:16:45.870Z,1004.86
2023-03-16T00:17:45.845Z,1004.86
2023-03-16T00:18:45.778Z,1004.87
2023-03-16T00:19:45.778Z,1004.87
2023-03-16T00:20:45.865Z,1004.84
2023-03-16T00:21:45.758Z,1004.89
2023-03-16T00:22:45.759Z,1004.90
2023-03-16T00:23:45.778Z,1004.89
2023-03-16T00:24:45.778Z,1004.89
2023-03-16T00:25:45.747Z,1004.88
2023-03-16T00:26:45.709Z,1004.92
2023-03-16T00:27:45.722Z,1004.92
2023-03-16T00:28:45.692Z,1004.95
2023-03-16T00:29:45.967Z,1004.93
2023-03-16T00:30:45.699Z,1004.99
2023-03-16T00:31:45.748Z,1004.99
2023-03-16T00:32:45.688Z,1005.01
2023-03-16T00:33:45.656Z,1005.01
2023-03-16T00:34:45.650Z,1005.03
2023-03-16T00:35:45.772Z,1005.06
2023-03-16T00:36:45.594Z,1005.10
2023-03-16T00:37:45.629Z,1005.09
2023-03-16T00:38:45.704Z,1005.14
2023-03-16T00:39:45.555Z,1005.21
2023-03-16T00:40:45.581Z,1005.25
2023-03-16T00:41:45.567Z,1005.27
2023-03-16T00:42:45.523Z,1005.29
2023-03-16T00:44:57.478Z,1005.31
2023-03-16T00:45:58.431Z,1005.31
2023-03-16T00:46:58.395Z,1005.34
2023-03-16T00:47:58.339Z,1005.33
2023-03-16T00:48:58.316Z,1005.37
2023-03-16T00:49:58.312Z,1005.41
2023-03-16T00:50:58.295Z,1005.47
2023-03-16T00:51:58.289Z,1005.50
2023-03-16T00:52:58.411Z,1005.50
2023-03-16T00:53:58.273Z,1005.54
2023-03-16T00:54:58.264Z,1005.61
2023-03-16T00:55:58.253Z,1005.64
2023-03-16T00:56:58.234Z,1005.66
2023-03-16T00:57:58.226Z,1005.73
2023-03-16T00:58:58.286Z,1005.74
2023-03-16T00:59:58.205Z,1005.77
2023-03-16T01:00:58.250Z,1005.81
2023-03-16T01:01:58.189Z,1005.81
2023-03-16T01:02:58.252Z,1005.84
2023-03-16T01:03:58.168Z,1005.86
2023-03-16T01:04:58.301Z,1005.86
2023-03-16T01:05:58.144Z,1005.89
2023-03-16T01:06:58.129Z,1005.90
2023-03-16T01:07:58.120Z,1005.97
2023-03-16T01:08:58.124Z,1006.07
2023-03-16T01:09:58.106Z,1006.11
2023-03-16T01:10:58.233Z,1006.18
2023-03-16T01:11:58.141Z,1006.21
2023-03-16T01:12:58.073Z,1006.29
2023-03-16T01:13:58.064Z,1006.38
2023-03-16T01:14:58.045Z,1006.41
2023-03-16T01:15:58.047Z,1006.42
2023-03-16T01:16:58.270Z,1006.46
2023-03-16T01:17:58.028Z,1006.49
2023-03-16T01:18:58.008Z,1006.52
2023-03-16T01:19:58.007Z,1006.54
2023-03-16T01:20:57.990Z,1006.60
2023-03-16T01:21:58.002Z,1006.59
2023-03-16T01:22:58.017Z,1006.62
2023-03-16T01:23:57.955Z,1006.63
2023-03-16T01:24:57.951Z,1006.65
2023-03-16T01:25:57.940Z,1006.63
2023-03-16T01:26:57.935Z,1006.68
2023-03-16T01:27:57.924Z,1006.72
2023-03-16T01:28:57.944Z,1006.72
2023-03-16T01:29:57.904Z,1006.72
2023-03-16T01:30:57.977Z,1006.73
2023-03-16T01:31:57.883Z,1006.74
2023-03-16T01:32:57.933Z,1006.76
2023-03-16T01:33:57.855Z,1006.76
2023-03-16T01:34:58.155Z,1006.77
2023-03-16T01:35:57.939Z,1006.77
2023-03-16T01:36:57.833Z,1006.81
2023-03-16T01:37:57.817Z,1006.82
2023-03-16T01:38:57.798Z,1006.80
2023-03-16T01:39:57.797Z,1006.84
2023-03-16T01:40:57.825Z,1006.87
2023-03-16T01:41:57.781Z,1006.90
2023-03-16T01:42:57.766Z,1006.89
2023-03-16T01:44:05.186Z,1006.89
2023-03-16T01:44:57.763Z,1006.90
2023-03-16T01:45:57.757Z,1006.93
2023-03-16T01:46:57.890Z,1006.94
2023-03-16T01:47:57.717Z,1006.96
2023-03-16T01:48:57.701Z,1006.97
2023-03-16T01:49:57.692Z,1006.98
2023-03-16T01:50:57.698Z,1007.00
2023-03-16T01:51:57.676Z,1007.01
2023-03-16T01:52:57.864Z,1007.00
2023-03-16T01:53:57.679Z,1007.01
2023-03-16T01:54:57.635Z,1007.01
2023-03-16T01:55:57.632Z,1007.02
2023-03-16T01:56:57.648Z,1007.06
2023-03-16T01:57:57.653Z,1007.11
2023-03-16T01:58:57.771Z,1007.16
2023-03-16T01:59:57.607Z,1007.19
2023-03-16T02:00:57.589Z,1007.21
2023-03-16T02:01:57.565Z,1007.23
2023-03-16T02:02:57.559Z,1007.25
2023-03-16T02:03:57.619Z,1007.26
2023-03-16T02:04:57.574Z,1007.31
2023-03-16T02:05:57.542Z,1007.32
2023-03-16T02:06:57.520Z,1007.34
2023-03-16T02:07:57.509Z,1007.36
2023-03-16T02:08:57.491Z,1007.39
2023-03-16T02:09:57.497Z,1007.41
2023-03-16T02:10:57.622Z,1007.43
2023-03-16T02:11:57.479Z,1007.43
2023-03-16T02:12:57.453Z,1007.43
2023-03-16T02:13:57.455Z,1007.45
2023-03-16T02:14:57.433Z,1007.45
2023-03-16T02:15:57.461Z,1007.47
2023-03-16T02:16:57.573Z,1007.48
2023-03-16T02:17:57.401Z,1007.49
2023-03-16T02:18:57.398Z,1007.54
2023-03-16T02:19:57.385Z,1007.54
2023-03-16T02:20:57.377Z,1007.57
2023-03-16T02:21:57.406Z,1007.59
2023-03-16T02:22:57.384Z,1007.61
2023-03-16T02:23:57.340Z,1007.61
2023-03-16T02:24:57.346Z,1007.65
2023-03-16T02:25:57.329Z,1007.63
2023-03-16T02:26:57.308Z,1007.65
2023-03-16T02:27:57.320Z,1007.67
2023-03-16T02:28:57.427Z,1007.64
2023-03-16T02:29:57.284Z,1007.67
2023-03-16T02:30:57.361Z,1007.66
2023-03-16T02:31:57.254Z,1007.69
2023-03-16T02:32:57.318Z,1007.71
2023-03-16T02:33:57.253Z,1007.73
2023-03-16T02:34:57.404Z,1007.75
2023-03-16T02:35:57.291Z,1007.76
2023-03-16T02:36:57.214Z,1007.76
2023-03-16T02:37:57.220Z,1007.76
2023-03-16T02:38:57.183Z,1007.76
2023-03-16T02:39:57.183Z,1007.78
2023-03-16T02:40:57.436Z,1007.77
2023-03-16T02:41:57.172Z,1007.78
2023-03-16T02:42:57.156Z,1007.76
2023-03-16T02:43:57.165Z,1007.78
2023-03-16T02:44:57.144Z,1007.79
2023-03-16T02:45:57.118Z,1007.80
2023-03-16T02:46:57.285Z,1007.83
2023-03-16T02:47:57.101Z,1007.84
2023-03-16T02:48:57.093Z,1007.85
2023-03-16T02:49:57.073Z,1007.89
2023-03-16T02:50:57.072Z,1007.90
2023-03-16T02:51:57.051Z,1007.90
2023-03-16T02:52:57.176Z,1007.90
2023-03-16T02:53:57.033Z,1007.92
2023-03-16T02:54:57.014Z,1007.90
2023-03-16T02:55:57.023Z,1007.92
2023-03-16T02:56:57.000Z,1007.93
2023-03-16T02:57:56.996Z,1007.95
2023-03-16T02:58:57.000Z,1007.98
2023-03-16T02:59:57.090Z,1007.99
2023-03-16T03:00:56.959Z,1008.00
2023-03-16T03:01:56.957Z,1008.01
2023-03-16T03:02:56.989Z,1008.01
2023-03-16T03:03:56.951Z,1008.01
2023-03-16T03:04:56.970Z,1008.03
2023-03-16T03:05:56.915Z,1008.05
2023-03-16T03:06:56.892Z,1008.07
2023-03-16T03:07:56.948Z,1008.08
2023-03-16T03:08:56.876Z,1008.12
2023-03-16T03:09:56.880Z,1008.15
2023-03-16T03:10:57.033Z,1008.17
2023-03-16T03:11:56.845Z,1008.19
2023-03-16T03:12:56.841Z,1008.22
2023-03-16T03:13:56.838Z,1008.23
2023-03-16T03:14:56.832Z,1008.25
2023-03-16T03:15:56.840Z,1008.26
2023-03-16T03:16:56.961Z,1008.26
2023-03-16T03:17:56.782Z,1008.27
2023-03-16T03:18:56.784Z,1008.26
2023-03-16T03:19:56.766Z,1008.26
2023-03-16T03:20:56.749Z,1008.26
2023-03-16T03:21:56.840Z,1008.26
2023-03-16T03:22:56.896Z,1008.27
2023-03-16T03:23:56.734Z,1008.31
2023-03-16T03:24:56.702Z,1008.37
2023-03-16T03:25:56.709Z,1008.39
2023-03-16T03:26:56.690Z,1008.37
2023-03-16T03:27:56.747Z,1008.34
2023-03-16T03:28:56.819Z,1008.36
2023-03-16T03:29:56.658Z,1008.39
2023-03-16T03:30:56.651Z,1008.40
2023-03-16T03:31:56.695Z,1008.40
2023-03-16T03:32:56.711Z,1008.41
2023-03-16T03:33:56.626Z,1008.44
2023-03-16T03:34:56.790Z,1008.46
2023-03-16T03:35:56.628Z,1008.46
2023-03-16T03:36:56.580Z,1008.48
2023-03-16T03:37:56.577Z,1008.50
2023-03-16T03:38:56.570Z,1008.53
2023-03-16T03:39:56.577Z,1008.56
2023-03-16T03:40:56.715Z,1008.60
2023-03-16T03:41:56.559Z,1008.62
2023-03-16T03:42:56.518Z,1008.63
2023-03-16T03:44:04.702Z,1008.66
2023-03-16T03:44:56.517Z,1008.68
2023-03-16T03:45:56.623Z,1008.69
2023-03-16T03:46:56.677Z,1008.71
2023-03-16T03:47:56.486Z,1008.72
2023-03-16T03:48:56.460Z,1008.73
2023-03-16T03:49:56.457Z,1008.75
2023-03-16T03:50:56.435Z,1008.78
2023-03-16T03:51:56.430Z,1008.78
2023-03-16T03:52:56.459Z,1008.77
2023-03-16T03:53:56.419Z,1008.77
2023-03-16T03:54:56.405Z,1008.77
2023-03-16T03:55:56.386Z,1008.79
2023-03-16T03:56:56.375Z,1008.81
2023-03-16T03:57:56.366Z,1008.83
2023-03-16T03:58:56.414Z,1008.84
2023-03-16T03:59:56.369Z,1008.86
2023-03-16T04:00:56.339Z,1008.88
2023-03-16T04:01:56.335Z,1008.90
2023-03-16T04:02:56.387Z,1008.90
2023-03-16T04:03:56.307Z,1008.91
2023-03-16T04:04:56.449Z,1008.92
2023-03-16T04:05:56.291Z,1008.94
2023-03-16T04:06:56.277Z,1008.97
2023-03-16T04:07:56.265Z,1009.00
2023-03-16T04:08:56.250Z,1009.02
2023-03-16T04:09:56.261Z,1009.04
2023-03-16T04:10:56.385Z,1009.06
2023-03-16T04:11:56.221Z,1009.08
2023-03-16T04:12:56.205Z,1009.09
2023-03-16T04:13:56.199Z,1009.10
2023-03-16T04:14:56.189Z,1009.11
2023-03-16T04:15:56.181Z,1009.12
2023-03-16T04:16:56.222Z,1009.14
2023-03-16T04:17:56.158Z,1009.15
2023-03-16T04:18:56.144Z,1009.18
2023-03-16T04:19:56.135Z,1009.20
2023-03-16T04:20:56.121Z,1009.22
2023-03-16T04:21:56.115Z,1009.22
2023-03-16T04:22:56.246Z,1009.24
2023-03-16T04:23:56.126Z,1009.25
2023-03-16T04:24:56.088Z,1009.27
2023-03-16T04:25:56.080Z,1009.28
2023-03-16T04:26:56.066Z,1009.28
2023-03-16T04:27:56.058Z,1009.30
2023-03-16T04:28:56.196Z,1009.30
2023-03-16T04:29:56.047Z,1009.28
2023-03-16T04:30:56.066Z,1009.30
2023-03-16T04:31:56.035Z,1009.32
2023-03-16T04:32:56.056Z,1009.32
2023-03-16T04:33:55.985Z,1009.32
2023-03-16T04:34:56.126Z,1009.34
2023-03-16T04:35:56.048Z,1009.34
2023-03-16T04:36:55.980Z,1009.35
2023-03-16T04:37:55.952Z,1009.37
2023-03-16T04:38:55.938Z,1009.38
2023-03-16T04:39:55.927Z,1009.40
2023-03-16T04:40:56.064Z,1009.42
2023-03-16T04:41:55.916Z,1009.45
2023-03-16T04:42:55.900Z,1009.47
2023-03-16T04:43:55.889Z,1009.48
2023-03-16T04:44:55.883Z,1009.49
2023-03-16T04:45:55.892Z,1009.50
2023-03-16T04:46:56.131Z,1009.51
2023-03-16T04:47:55.843Z,1009.51
2023-03-16T04:48:55.836Z,1009.52
2023-03-16T04:49:55.826Z,1009.51
2023-03-16T04:50:55.821Z,1009.53
2023-03-16T04:51:55.805Z,1009.55
2023-03-16T04:52:55.942Z,1009.56
2023-03-16T04:53:55.789Z,1009.58
2023-03-16T04:54:55.774Z,1009.60
2023-03-16T04:55:55.766Z,1009.61
2023-03-16T04:56:55.756Z,1009.62
2023-03-16T04:57:55.759Z,1009.63
2023-03-16T04:58:55.819Z,1009.64
2023-03-16T04:59:55.730Z,1009.65
2023-03-16T05:00:55.678Z,1009.65
2023-03-16T05:01:55.701Z,1009.67
2023-03-16T05:02:55.645Z,1009.69
2023-03-16T05:03:56.735Z,1009.71
2023-03-16T05:04:55.663Z,1009.73
2023-03-16T05:05:55.696Z,1009.76
2023-03-16T05:06:55.670Z,1009.77
2023-03-16T05:07:55.648Z,1009.78
2023-03-16T05:08:55.592Z,1009.79
2023-03-16T05:09:55.577Z,1009.79
2023-03-16T05:10:55.659Z,1009.80
2023-03-16T05:11:55.564Z,1009.83
2023-03-16T05:12:55.540Z,1009.83
2023-03-16T05:13:55.533Z,1009.85
2023-03-16T05:14:55.534Z,1009.85
2023-03-16T05:15:55.570Z,1009.87
2023-03-16T05:16:55.695Z,1009.87
2023-03-16T05:17:55.475Z,1009.87
2023-03-16T05:18:55.471Z,1009.87
2023-03-16T05:19:55.474Z,1009.90
2023-03-16T05:20:55.469Z,1009.89
2023-03-16T05:21:55.438Z,1009.90
2023-03-16T05:22:55.573Z,1009.92
2023-03-16T05:23:55.424Z,1009.93
2023-03-16T05:24:55.416Z,1009.95
2023-03-16T05:25:55.405Z,1009.97
2023-03-16T05:26:55.387Z,1009.99
2023-03-16T05:27:55.390Z,1010.00
2023-03-16T05:28:55.412Z,1010.01
2023-03-16T05:29:55.353Z,1010.01
2023-03-16T05:30:55.388Z,1010.03
2023-03-16T05:31:55.336Z,1010.03
2023-03-16T05:32:55.364Z,1010.04
2023-03-16T05:33:55.327Z,1010.05
2023-03-16T05:34:55.444Z,1010.06
2023-03-16T05:35:55.347Z,1010.07
2023-03-16T05:36:55.365Z,1010.08
2023-03-16T05:37:55.273Z,1010.10
2023-03-16T05:38:55.602Z,1010.11
2023-03-16T05:39:55.254Z,1010.13
2023-03-16T05:40:55.392Z,1010.14
2023-03-16T05:41:55.254Z,1010.16
2023-03-16T05:42:55.268Z,1010.17
2023-03-16T05:44:02.765Z,1010.19
2023-03-16T05:44:55.217Z,1010.21
2023-03-16T05:45:55.205Z,1010.24
2023-03-16T05:46:55.385Z,1010.26
2023-03-16T05:47:55.178Z,1010.28
2023-03-16T05:48:55.166Z,1010.31
2023-03-16T05:49:55.155Z,1010.32
2023-03-16T05:50:55.159Z,1010.33
2023-03-16T05:51:55.153Z,1010.34
2023-03-16T05:52:55.180Z,1010.35
2023-03-16T05:53:55.134Z,1010.35
2023-03-16T05:54:55.106Z,1010.37
2023-03-16T05:55:55.089Z,1010.39
2023-03-16T05:56:55.087Z,1010.42
2023-03-16T05:57:55.069Z,1010.45
2023-03-16T05:58:55.388Z,1010.47
2023-03-16T05:59:55.052Z,1010.49
2023-03-16T06:00:55.044Z,1010.51
2023-03-16T06:01:55.036Z,1010.53
2023-03-16T06:02:55.092Z,1010.54
2023-03-16T06:03:55.057Z,1010.57
2023-03-16T06:04:55.037Z,1010.58
2023-03-16T06:05:54.986Z,1010.59
2023-03-16T06:06:54.980Z,1010.60
2023-03-16T06:07:55.775Z,1010.61
2023-03-16T06:08:55.030Z,1010.63
2023-03-16T06:09:54.981Z,1010.66
2023-03-16T06:10:55.111Z,1010.67
2023-03-16T06:11:54.931Z,1010.68
2023-03-16T06:12:54.920Z,1010.69
2023-03-16T06:13:54.927Z,1010.69
2023-03-16T06:14:54.900Z,1010.71
2023-03-16T06:15:54.955Z,1010.72
2023-03-16T06:16:54.941Z,1010.71
2023-03-16T06:17:54.888Z,1010.72
2023-03-16T06:18:54.851Z,1010.73
2023-03-16T06:19:54.841Z,1010.73
2023-03-16T06:20:54.840Z,1010.74
2023-03-16T06:21:54.945Z,1010.74
2023-03-16T06:22:54.861Z,1010.75
2023-03-16T06:23:54.798Z,1010.77
2023-03-16T06:24:54.797Z,1010.79
2023-03-16T06:25:54.782Z,1010.81
2023-03-16T06:26:54.777Z,1010.82
2023-03-16T06:27:54.756Z,1010.83
2023-03-16T06:28:54.802Z,1010.84
2023-03-16T06:29:54.748Z,1010.85
2023-03-16T06:30:54.753Z,1010.85
2023-03-16T06:31:54.954Z,1010.86
2023-03-16T06:32:54.769Z,1010.87
2023-03-16T06:33:54.737Z,1010.89
2023-03-16T06:34:54.851Z,1010.90
2023-03-16T06:35:54.762Z,1010.91
2023-03-16T06:36:54.686Z,1010.92
2023-03-16T06:37:54.667Z,1010.93
2023-03-16T06:38:54.654Z,1010.93
2023-03-16T06:39:54.668Z,1010.94
2023-03-16T06:40:54.772Z,1010.95
2023-03-16T06:41:54.646Z,1010.96
2023-03-16T06:42:54.645Z,1010.98
2023-03-16T06:44:04.061Z,1011.00
2023-03-16T06:44:54.852Z,1011.00
2023-03-16T06:45:54.917Z,1011.01
2023-03-16T06:46:54.793Z,1011.01
2023-03-16T06:47:54.765Z,1011.02
2023-03-16T06:48:54.776Z,1011.03
2023-03-16T06:49:54.781Z,1011.04
2023-03-16T06:50:54.992Z,1011.07
2023-03-16T06:51:54.691Z,1011.06
2023-03-16T06:52:55.317Z,1011.07
2023-03-16T06:53:54.705Z,1011.08
2023-03-16T06:54:55.022Z,1011.10
2023-03-16T06:55:54.622Z,1011.12
2023-03-16T06:56:55.185Z,1011.14
2023-03-16T06:57:54.536Z,1011.16
2023-03-16T06:58:54.852Z,1011.18
2023-03-16T06:59:54.563Z,1011.19
2023-03-16T07:00:55.148Z,1011.21
2023-03-16T07:01:54.663Z,1011.22
2023-03-16T07:02:54.603Z,1011.23
2023-03-16T07:03:54.669Z,1011.25
2023-03-16T07:04:55.812Z,1011.25
2023-03-16T07:05:54.594Z,1011.26
2023-03-16T07:06:54.557Z,1011.27
2023-03-16T07:07:54.600Z,1011.28
2023-03-16T07:08:54.617Z,1011.28
2023-03-16T07:09:54.617Z,1011.28
2023-03-16T07:10:54.831Z,1011.30
2023-03-16T07:11:54.631Z,1011.31
2023-03-16T07:12:54.528Z,1011.32
2023-03-16T07:13:54.449Z,1011.31
2023-03-16T07:14:54.486Z,1011.32
2023-03-16T07:15:54.660Z,1011.33
2023-03-16T07:16:55.285Z,1011.32
2023-03-16T07:17:54.365Z,1011.31
2023-03-16T07:18:54.440Z,1011.31
2023-03-16T07:19:54.884Z,1011.33
2023-03-16T07:20:54.379Z,1011.33
2023-03-16T07:21:54.385Z,1011.34
2023-03-16T07:22:54.816Z,1011.35
2023-03-16T07:23:54.652Z,1011.36
2023-03-16T07:24:54.413Z,1011.37
2023-03-16T07:25:54.317Z,1011.37
2023-03-16T07:26:54.351Z,1011.39
2023-03-16T07:27:54.227Z,1011.40
2023-03-16T07:28:56.928Z,1011.41
2023-03-16T07:29:54.339Z,1011.43
2023-03-16T07:31:03.412Z,1011.45
2023-03-16T07:31:54.411Z,1011.46
2023-03-16T07:32:54.498Z,1011.47
2023-03-16T07:33:54.268Z,1011.48
2023-03-16T07:34:54.579Z,1011.49
2023-03-16T07:35:54.418Z,1011.50
2023-03-16T07:36:54.598Z,1011.51
2023-03-16T07:37:54.196Z,1011.51
2023-03-16T07:38:54.402Z,1011.51
2023-03-16T07:39:54.110Z,1011.52
2023-03-16T07:40:54.518Z,1011.53
2023-03-16T07:41:54.426Z,1011.54
2023-03-16T07:42:54.324Z,1011.55
2023-03-16T07:45:12.064Z,1011.55
2023-03-16T07:46:12.394Z,1011.55
2023-03-16T07:47:12.202Z,1011.54
2023-03-16T07:48:12.496Z,1011.54
2023-03-16T07:49:12.000Z,1011.54
2023-03-16T07:50:12.201Z,1011.55
2023-03-16T07:51:12.315Z,1011.58
2023-03-16T07:52:12.386Z,1011.60
2023-03-16T07:53:12.364Z,1011.62
2023-03-16T07:54:12.236Z,1011.63
2023-03-16T07:55:12.024Z,1011.65
2023-03-16T07:56:12.136Z,1011.68
2023-03-16T07:57:11.947Z,1011.70
2023-03-16T07:58:12.148Z,1011.71
2023-03-16T07:59:12.063Z,1011.72
2023-03-16T08:00:11.958Z,1011.74
2023-03-16T08:01:11.869Z,1011.75
2023-03-16T08:02:12.123Z,1011.76
2023-03-16T08:03:12.113Z,1011.78
2023-03-16T08:04:12.649Z,1011.78
2023-03-16T08:05:11.858Z,1011.79
2023-03-16T08:06:11.900Z,1011.80
2023-03-16T08:07:11.976Z,1011.80
2023-03-16T08:08:12.016Z,1011.80
2023-03-16T08:09:11.940Z,1011.80
2023-03-16T08:10:12.242Z,1011.81
2023-03-16T08:11:11.930Z,1011.82
2023-03-16T08:12:11.968Z,1011.83
2023-03-16T08:13:11.750Z,1011.83
2023-03-16T08:14:11.955Z,1011.83
2023-03-16T08:15:11.880Z,1011.83
2023-03-16T08:16:12.195Z,1011.83
2023-03-16T08:17:11.673Z,1011.83
2023-03-16T08:18:11.780Z,1011.84
2023-03-16T08:19:11.865Z,1011.85
2023-03-16T08:20:11.902Z,1011.87
2023-03-16T08:21:11.908Z,1011.88
2023-03-16T08:22:11.917Z,1011.89
2023-03-16T08:23:11.714Z,1011.90
2023-03-16T08:24:11.731Z,1011.90
2023-03-16T08:25:11.634Z,1011.91
2023-03-16T08:26:11.945Z,1011.92
2023-03-16T08:27:11.741Z,1011.92
2023-03-16T08:28:11.753Z,1011.93
2023-03-16T08:29:11.848Z,1011.94
2023-03-16T08:30:11.860Z,1011.95
2023-03-16T08:31:11.780Z,1011.95
2023-03-16T08:32:11.956Z,1011.96
2023-03-16T08:33:11.796Z,1011.97
2023-03-16T08:34:11.797Z,1011.98
2023-03-16T08:35:11.594Z,1011.99
2023-03-16T08:36:11.540Z,1011.99
2023-03-16T08:37:11.613Z,1012.00
2023-03-16T08:38:11.632Z,1012.01
2023-03-16T08:39:12.193Z,1012.02
2023-03-16T08:40:11.833Z,1012.03
2023-03-16T08:41:11.440Z,1012.06
2023-03-16T08:42:11.548Z,1012.08
2023-03-16T08:43:11.551Z,1012.10
2023-03-16T08:44:18.860Z,1012.12
2023-03-16T08:45:14.198Z,1012.14
2023-03-16T08:46:11.655Z,1012.15
2023-03-16T08:47:11.559Z,1012.17
2023-03-16T08:48:11.686Z,1012.20
2023-03-16T08:49:12.012Z,1012.21
2023-03-16T08:50:11.514Z,1012.24
2023-03-16T08:51:11.513Z,1012.25
2023-03-16T08:52:11.750Z,1012.26
2023-03-16T08:53:11.311Z,1012.27
2023-03-16T08:54:11.426Z,1012.28
2023-03-16T08:55:11.434Z,1012.29
2023-03-16T08:56:11.445Z,1012.30
2023-03-16T08:57:11.235Z,1012.32
2023-03-16T08:58:11.446Z,1012.33
2023-03-16T08:59:23.658Z,1012.34
2023-03-16T09:00:11.357Z,1012.35
2023-03-16T09:01:11.366Z,1012.37
2023-03-16T09:02:11.454Z,1012.38
2023-03-16T09:03:11.276Z,1012.39
2023-03-16T09:04:11.598Z,1012.39
2023-03-16T09:05:11.204Z,1012.39
2023-03-16T09:06:11.398Z,1012.40
2023-03-16T09:07:11.208Z,1012.41
2023-03-16T09:08:11.421Z,1012.42
2023-03-16T09:09:11.118Z,1012.43
2023-03-16T09:10:11.531Z,1012.44
2023-03-16T09:11:11.238Z,1012.45
2023-03-16T09:12:11.446Z,1012.45
2023-03-16T09:13:11.248Z,1012.46
2023-03-16T09:14:11.475Z,1012.47
2023-03-16T09:15:11.166Z,1012.47
2023-03-16T09:16:11.827Z,1012.47
2023-03-16T09:17:11.166Z,1012.47
2023-03-16T09:18:11.386Z,1012.47
2023-03-16T09:19:11.511Z,1012.47
2023-03-16T09:20:21.771Z,1012.46
2023-03-16T09:21:11.120Z,1012.46
2023-03-16T09:22:11.205Z,1012.46
2023-03-16T09:23:11.107Z,1012.46
2023-03-16T09:24:11.124Z,1012.47
2023-03-16T09:25:11.280Z,1012.48
2023-03-16T09:26:10.928Z,1012.49
2023-03-16T09:27:11.405Z,1012.50
2023-03-16T09:28:11.054Z,1012.50
2023-03-16T09:29:11.283Z,1012.50
2023-03-16T09:30:11.160Z,1012.50
2023-03-16T09:31:11.061Z,1012.50
2023-03-16T09:32:10.988Z,1012.52
2023-03-16T09:33:10.966Z,1012.53
2023-03-16T09:34:11.096Z,1012.54
2023-03-16T09:35:11.296Z,1012.54
2023-03-16T09:36:11.180Z,1012.55
2023-03-16T09:37:10.905Z,1012.55
2023-03-16T09:38:10.914Z,1012.55
2023-03-16T09:39:10.925Z,1012.56
2023-03-16T09:40:12.144Z,1012.56
2023-03-16T09:41:10.938Z,1012.55
2023-03-16T09:42:10.837Z,1012.55
2023-03-16T09:43:10.924Z,1012.54
2023-03-16T09:44:18.100Z,1012.55
2023-03-16T09:45:10.651Z,1012.54
2023-03-16T09:46:10.823Z,1012.55
2023-03-16T09:47:10.623Z,1012.57
2023-03-16T09:48:10.622Z,1012.58
2023-03-16T09:49:10.690Z,1012.60
2023-03-16T09:50:10.608Z,1012.62
2023-03-16T09:51:10.681Z,1012.62
2023-03-16T09:52:10.631Z,1012.64
2023-03-16T09:53:10.579Z,1012.64
2023-03-16T09:54:10.558Z,1012.66
2023-03-16T09:55:10.555Z,1012.66
2023-03-16T09:56:10.528Z,1012.70
2023-03-16T09:57:10.547Z,1012.71
2023-03-16T09:58:10.584Z,1012.72
2023-03-16T09:59:10.494Z,1012.73
2023-03-16T10:00:10.499Z,1012.74
2023-03-16T10:01:10.559Z,1012.74
2023-03-16T10:02:10.484Z,1012.74
2023-03-16T10:03:10.452Z,1012.75
2023-03-16T10:04:10.634Z,1012.76
2023-03-16T10:05:10.444Z,1012.77
2023-03-16T10:06:10.437Z,1012.78
2023-03-16T10:07:10.409Z,1012.78
2023-03-16T10:08:10.434Z,1012.78
2023-03-16T10:09:10.393Z,1012.78
2023-03-16T10:10:10.415Z,1012.79
2023-03-16T10:11:10.391Z,1012.80
2023-03-16T10:12:10.354Z,1012.81
2023-03-16T10:13:10.347Z,1012.82
2023-03-16T10:14:10.341Z,1012.82
2023-03-16T10:15:10.434Z,1012.82
2023-03-16T10:16:10.382Z,1012.84
2023-03-16T10:17:10.307Z,1012.86
2023-03-16T10:18:12.362Z,1012.86
2023-03-16T10:19:10.277Z,1012.87
2023-03-16T10:20:10.285Z,1012.87
2023-03-16T10:21:10.269Z,1012.87
2023-03-16T10:22:10.322Z,1012.88
2023-03-16T10:23:10.237Z,1012.88
2023-03-16T10:24:10.243Z,1012.89
2023-03-16T10:25:10.235Z,1012.89
2023-03-16T10:26:10.208Z,1012.89
2023-03-16T10:27:10.192Z,1012.89
2023-03-16T10:28:10.271Z,1012.89
2023-03-16T10:29:10.176Z,1012.90
2023-03-16T10:30:10.188Z,1012.91
2023-03-16T10:31:10.159Z,1012.93
2023-03-16T10:32:10.151Z,1012.93
2023-03-16T10:33:10.420Z,1012.92
2023-03-16T10:34:10.316Z,1012.92
2023-03-16T10:35:10.104Z,1012.94
2023-03-16T10:36:10.177Z,1012.92
2023-03-16T10:37:10.100Z,1012.92
2023-03-16T10:38:10.104Z,1012.91
2023-03-16T10:39:10.080Z,1012.94
2023-03-16T10:40:10.294Z,1012.95
2023-03-16T10:41:10.053Z,1012.97
2023-03-16T10:42:10.773Z,1012.99
2023-03-16T10:43:10.034Z,1013.00
2023-03-16T10:44:10.037Z,1013.01
2023-03-16T10:45:10.030Z,1013.03
2023-03-16T10:46:10.248Z,1013.04
2023-03-16T10:47:10.056Z,1013.05
2023-03-16T10:48:09.985Z,1013.04
2023-03-16T10:49:09.962Z,1013.02
2023-03-16T10:50:09.957Z,1013.04
2023-03-16T10:51:09.950Z,1013.03
2023-03-16T10:52:10.254Z,1013.03
2023-03-16T10:53:09.951Z,1013.03
2023-03-16T10:54:09.936Z,1013.03
2023-03-16T10:55:09.975Z,1012.99
2023-03-16T10:56:09.895Z,1012.98
2023-03-16T10:57:10.876Z,1012.96
2023-03-16T10:58:10.249Z,1012.97
2023-03-16T10:59:09.958Z,1012.96
2023-03-16T11:00:10.142Z,1012.97
2023-03-16T11:01:09.910Z,1012.98
2023-03-16T11:02:09.920Z,1012.99
2023-03-16T11:03:09.829Z,1012.99
2023-03-16T11:04:09.984Z,1013.01
2023-03-16T11:05:09.807Z,1013.01
2023-03-16T11:06:09.797Z,1013.01
2023-03-16T11:07:10.595Z,1013.00
2023-03-16T11:08:09.774Z,1012.98
2023-03-16T11:09:09.786Z,1012.97
2023-03-16T11:10:10.146Z,1012.96
2023-03-16T11:11:09.816Z,1012.95
2023-03-16T11:12:10.427Z,1012.94
2023-03-16T11:13:09.710Z,1012.94
2023-03-16T11:14:09.809Z,1012.96
2023-03-16T11:15:20.151Z,1012.98
2023-03-16T11:16:09.840Z,1012.99
2023-03-16T11:17:09.701Z,1012.98
2023-03-16T11:18:09.660Z,1012.96
2023-03-16T11:19:09.657Z,1012.96
2023-03-16T11:20:09.643Z,1012.96
2023-03-16T11:21:09.629Z,1012.96
2023-03-16T11:22:09.686Z,1012.98
2023-03-16T11:23:09.618Z,1012.99
2023-03-16T11:24:09.605Z,1012.99
2023-03-16T11:25:09.606Z,1013.00
2023-03-16T11:26:09.580Z,1013.01
2023-03-16T11:27:09.576Z,1013.00
2023-03-16T11:28:09.620Z,1012.99
2023-03-16T11:29:09.542Z,1012.98
2023-03-16T11:30:09.559Z,1013.00
2023-03-16T11:31:09.603Z,1013.00
2023-03-16T11:32:09.523Z,1013.00
2023-03-16T11:33:09.610Z,1013.00
2023-03-16T11:34:09.664Z,1012.98
2023-03-16T11:35:09.507Z,1012.99
2023-03-16T11:36:09.516Z,1012.96
2023-03-16T11:37:09.478Z,1012.98
2023-03-16T11:38:09.463Z,1012.96
2023-03-16T11:39:09.452Z,1012.93
2023-03-16T11:40:09.586Z,1012.91
2023-03-16T11:41:09.423Z,1012.90
2023-03-16T11:42:09.418Z,1012.88
2023-03-16T11:43:09.407Z,1012.91
2023-03-16T11:44:17.646Z,1012.91
2023-03-16T11:45:09.372Z,1012.92
2023-03-16T11:46:09.547Z,1012.93
2023-03-16T11:47:09.371Z,1012.91
2023-03-16T11:48:09.353Z,1012.91
2023-03-16T11:49:09.354Z,1012.91
2023-03-16T11:50:09.336Z,1012.91
2023-03-16T11:51:09.312Z,1012.91
2023-03-16T11:52:09.374Z,1012.93
2023-03-16T11:53:09.294Z,1012.92
2023-03-16T11:54:09.289Z,1012.92
2023-03-16T11:55:09.294Z,1012.94
2023-03-16T11:56:09.274Z,1012.94
2023-03-16T11:57:09.256Z,1012.94
2023-03-16T11:58:09.301Z,1012.94
2023-03-16T11:59:09.224Z,1012.92
2023-03-16T12:00:09.232Z,1012.89
2023-03-16T12:01:09.210Z,1012.87
2023-03-16T12:02:09.265Z,1012.86
2023-03-16T12:03:09.258Z,1012.87
2023-03-16T12:04:09.372Z,1012.86
2023-03-16T12:05:09.164Z,1012.87
2023-03-16T12:06:22.128Z,1012.87
2023-03-16T12:07:09.157Z,1012.87
2023-03-16T12:08:09.133Z,1012.89